createdAt,value
2018-11-21T00:00:44.612Z,78.39
2018-11-21T00:03:11.933Z,78.30
2018-11-21T00:05:39.124Z,78.21
2018-11-21T00:08:06.276Z,78.31
2018-11-21T00:10:33.458Z,78.29
2018-11-21T00:13:00.663Z,78.20
2018-11-21T00:15:27.790Z,78.22
2018-11-21T00:17:54.909Z,78.23
2018-11-21T00:20:22.090Z,78.19
2018-11-21T00:22:49.247Z,78.37
2018-11-21T00:25:16.386Z,78.29
2018-11-21T00:27:43.528Z,78.42
2018-11-21T00:30:12.593Z,78.47
2018-11-21T00:32:39.744Z,78.58
2018-11-21T00:35:07.947Z,78.43
2018-11-21T00:37:35.135Z,78.23
2018-11-21T00:40:02.469Z,78.55
2018-11-21T00:42:30.685Z,78.28
2018-11-21T00:44:57.802Z,78.22
2018-11-21T00:47:24.958Z,78.04
2018-11-21T00:49:52.148Z,78.08
2018-11-21T00:52:19.244Z,78.26
2018-11-21T00:54:46.389Z,78.25
2018-11-21T00:57:13.531Z,78.14
2018-11-21T00:59:40.661Z,78.63
2018-11-21T01:02:07.807Z,78.63
2018-11-21T01:04:34.993Z,78.39
2018-11-21T01:07:02.468Z,78.36
2018-11-21T01:09:29.790Z,78.21
2018-11-21T01:11:56.968Z,78.20
2018-11-21T01:14:24.211Z,78.43
2018-11-21T01:16:51.322Z,78.56
2018-11-21T01:19:18.449Z,78.60
2018-11-21T01:21:45.680Z,78.79
2018-11-21T01:24:12.831Z,78.76
2018-11-21T01:26:39.948Z,78.66
2018-11-21T01:29:07.127Z,78.74
2018-11-21T01:31:34.287Z,79.12
2018-11-21T01:34:01.479Z,78.84
2018-11-21T01:36:28.663Z,79.37
2018-11-21T01:38:55.768Z,79.16
2018-11-21T01:41:22.904Z,78.80
2018-11-21T01:43:50.123Z,79.01
2018-11-21T01:46:17.250Z,78.99
2018-11-21T01:48:44.376Z,79.16
2018-11-21T01:51:11.527Z,79.44
2018-11-21T01:53:38.631Z,79.35
2018-11-21T01:56:05.759Z,79.06
2018-11-21T01:58:32.979Z,79.17
2018-11-21T02:01:00.077Z,79.11
2018-11-21T02:03:27.202Z,79.28
2018-11-21T02:05:54.362Z,79.23
2018-11-21T02:08:21.534Z,79.33
2018-11-21T02:10:48.708Z,79.43
2018-11-21T02:13:15.843Z,79.09
2018-11-21T02:15:43.037Z,79.41
2018-11-21T02:18:10.661Z,79.25
2018-11-21T02:20:37.793Z,79.14
2018-11-21T02:23:07.909Z,79.44
2018-11-21T02:25:35.048Z,79.33
2018-11-21T02:28:02.190Z,79.37
2018-11-21T02:30:31.223Z,79.28
2018-11-21T02:32:58.311Z,79.50
2018-11-21T02:35:25.540Z,79.66
2018-11-21T02:37:52.938Z,79.63
2018-11-21T02:40:20.068Z,79.48
2018-11-21T02:42:47.179Z,79.43
2018-11-21T02:45:14.281Z,79.50
2018-11-21T02:47:41.408Z,79.63
2018-11-21T02:50:08.508Z,79.56
2018-11-21T02:52:35.631Z,79.49
2018-11-21T02:55:02.780Z,79.31
2018-11-21T02:57:33.634Z,79.17
2018-11-21T03:00:03.249Z,79.11
2018-11-21T03:19:29.406Z,79.24
2018-11-21T03:21:56.504Z,79.27
2018-11-21T03:24:23.620Z,79.27
2018-11-21T03:26:51.475Z,79.12
2018-11-21T03:29:18.558Z,78.95
2018-11-21T03:31:45.679Z,79.05
2018-11-21T03:34:12.827Z,79.11
2018-11-21T03:36:46.485Z,79.22
2018-11-21T03:39:13.585Z,79.06
2018-11-21T03:41:40.722Z,79.24
2018-11-21T03:44:07.802Z,78.69
2018-11-21T03:46:34.951Z,78.62
2018-11-21T03:49:02.124Z,78.26
2018-11-21T03:51:29.214Z,78.03
2018-11-21T03:53:56.296Z,78.31
2018-11-21T03:56:23.457Z,77.85
2018-11-21T03:58:50.559Z,77.75
2018-11-21T04:01:17.688Z,77.87
2018-11-21T04:03:44.909Z,77.72
2018-11-21T04:06:11.990Z,77.63
2018-11-21T04:08:42.666Z,77.52
2018-11-21T04:11:06.258Z,77.72
2018-11-21T04:13:33.377Z,77.67
2018-11-21T04:16:00.496Z,77.41
2018-11-21T04:18:27.595Z,77.02
2018-11-21T04:20:54.783Z,77.03
2018-11-21T04:23:21.947Z,76.53
2018-11-21T04:25:49.076Z,76.74
2018-11-21T04:28:16.234Z,76.77
2018-11-21T04:30:43.376Z,76.68
2018-11-21T04:33:10.516Z,76.51
2018-11-21T04:35:37.632Z,76.58
2018-11-21T04:38:04.838Z,76.60
2018-11-21T04:40:34.243Z,76.20
2018-11-21T04:43:01.356Z,76.21
2018-11-21T04:45:28.533Z,75.97
2018-11-21T04:47:56.018Z,75.80
2018-11-21T04:50:22.819Z,76.38
2018-11-21T04:52:49.951Z,75.94
2018-11-21T04:55:17.085Z,75.73
2018-11-21T04:57:44.261Z,75.71
2018-11-21T05:00:11.543Z,76.14
2018-11-21T05:02:38.764Z,75.85
2018-11-21T05:05:07.237Z,75.77
2018-11-21T05:07:34.355Z,75.60
2018-11-21T05:10:01.499Z,75.57
2018-11-21T05:12:28.700Z,75.63
2018-11-21T05:14:55.835Z,75.36
2018-11-21T05:17:22.951Z,75.56
2018-11-21T05:19:50.100Z,75.26
2018-11-21T05:22:17.300Z,74.80
2018-11-21T05:24:44.578Z,75.49
2018-11-21T05:27:11.693Z,75.01
2018-11-21T05:29:38.823Z,75.14
2018-11-21T05:32:05.991Z,75.46
2018-11-21T05:34:33.174Z,75.32
2018-11-21T05:37:00.386Z,74.89
2018-11-21T05:39:27.491Z,75.04
2018-11-21T05:41:54.685Z,75.06
2018-11-21T05:44:21.798Z,74.90
2018-11-21T05:46:53.570Z,75.15
2018-11-21T05:49:16.100Z,74.63
2018-11-21T05:51:43.210Z,74.82
2018-11-21T05:54:10.340Z,74.63
2018-11-21T05:56:37.502Z,74.40
2018-11-21T05:59:04.721Z,74.65
2018-11-21T06:01:31.853Z,74.74
2018-11-21T06:03:59.006Z,74.25
2018-11-21T06:06:26.133Z,74.34
2018-11-21T06:08:53.297Z,74.39
2018-11-21T06:11:20.412Z,74.04
2018-11-21T06:13:47.547Z,74.36
2018-11-21T06:16:14.650Z,74.05
2018-11-21T06:18:41.778Z,74.23
2018-11-21T06:21:08.903Z,74.37
2018-11-21T06:23:36.081Z,74.90
2018-11-21T06:26:03.315Z,74.43
2018-11-21T06:28:30.463Z,74.22
2018-11-21T06:30:57.612Z,74.33
2018-11-21T06:33:24.659Z,74.28
2018-11-21T06:35:51.817Z,74.55
2018-11-21T06:38:18.986Z,74.59
2018-11-21T06:40:46.085Z,73.99
2018-11-21T06:43:13.225Z,74.03
2018-11-21T06:45:40.323Z,73.94
2018-11-21T06:48:07.443Z,73.98
2018-11-21T06:50:34.591Z,74.35
2018-11-21T06:53:01.709Z,73.79
2018-11-21T06:55:31.748Z,74.18
2018-11-21T06:57:58.849Z,74.42
2018-11-21T07:00:25.941Z,74.29
2018-11-21T07:02:53.060Z,74.06
2018-11-21T07:05:20.190Z,74.39
2018-11-21T07:07:47.269Z,74.64
2018-11-21T07:10:15.155Z,74.48
2018-11-21T07:12:42.990Z,74.48
2018-11-21T07:15:10.186Z,74.12
2018-11-21T07:17:37.736Z,74.46
2018-11-21T07:20:09.996Z,74.09
2018-11-21T07:22:37.530Z,74.51
2018-11-21T07:25:09.632Z,74.27
2018-11-21T07:27:37.077Z,74.13
2018-11-21T07:30:05.736Z,74.00
2018-11-21T07:32:32.941Z,74.48
2018-11-21T07:35:00.117Z,74.28
2018-11-21T07:37:27.349Z,74.71
2018-11-21T07:39:54.567Z,74.77
2018-11-21T07:42:21.786Z,74.76
2018-11-21T07:44:49.177Z,74.84
2018-11-21T07:47:16.320Z,74.49
2018-11-21T07:49:43.612Z,74.30
2018-11-21T07:52:10.848Z,74.38
2018-11-21T07:54:37.991Z,74.32
2018-11-21T07:57:29.642Z,74.13
2018-11-21T08:01:02.015Z,74.54
2018-11-21T08:03:31.256Z,74.14
2018-11-21T08:06:17.925Z,73.98
2018-11-21T08:09:23.027Z,73.58
2018-11-21T08:12:21.940Z,73.87
2018-11-21T08:15:11.362Z,73.38
2018-11-21T08:17:56.533Z,73.67
2018-11-21T08:20:54.929Z,73.55
2018-11-21T08:23:41.616Z,74.10
2018-11-21T08:26:40.602Z,73.79
2018-11-21T08:29:07.825Z,73.61
2018-11-21T08:31:34.965Z,73.75
2018-11-21T08:34:02.104Z,73.87
2018-11-21T08:36:29.271Z,73.47
2018-11-21T08:38:56.423Z,73.81
2018-11-21T08:41:23.603Z,73.47
2018-11-21T08:43:50.766Z,73.37
2018-11-21T08:46:17.920Z,73.34
2018-11-21T08:48:45.857Z,73.52
2018-11-21T08:51:12.976Z,73.61
2018-11-21T08:53:40.148Z,73.63
2018-11-21T08:56:07.321Z,72.96
2018-11-21T08:58:34.467Z,72.70
2018-11-21T09:01:01.611Z,72.55
2018-11-21T09:03:28.855Z,72.73
2018-11-21T09:05:56.017Z,72.85
2018-11-21T09:08:23.163Z,72.66
2018-11-21T09:10:50.290Z,72.93
2018-11-21T09:13:17.379Z,72.32
2018-11-21T09:15:44.658Z,72.51
2018-11-21T09:18:11.757Z,72.64
2018-11-21T09:20:38.884Z,71.87
2018-11-21T09:23:06.133Z,72.17
2018-11-21T09:25:33.305Z,72.51
2018-11-21T09:28:00.404Z,71.96
2018-11-21T09:30:27.515Z,72.23
2018-11-21T09:32:55.819Z,72.36
2018-11-21T09:35:22.962Z,72.29
2018-11-21T09:37:50.033Z,71.97
2018-11-21T09:40:18.720Z,72.26
2018-11-21T09:42:47.061Z,72.57
2018-11-21T09:45:15.425Z,72.77
2018-11-21T09:47:42.588Z,72.57
2018-11-21T09:50:15.046Z,72.75
2018-11-21T09:52:42.282Z,72.74
2018-11-21T09:55:09.596Z,72.74
2018-11-21T09:57:36.760Z,71.74
2018-11-21T10:00:41.660Z,72.26
2018-11-21T10:03:11.681Z,72.31
2018-11-21T10:05:38.940Z,72.52
2018-11-21T10:08:36.857Z,73.19
2018-11-21T10:11:04.283Z,72.46
2018-11-21T10:13:31.823Z,73.18
2018-11-21T10:16:01.048Z,73.05
2018-11-21T10:18:27.032Z,72.96
2018-11-21T10:20:53.361Z,72.64
2018-11-21T10:23:20.582Z,72.34
2018-11-21T10:25:47.752Z,72.29
2018-11-21T10:28:14.960Z,72.43
2018-11-21T10:30:42.184Z,72.33
2018-11-21T10:33:09.312Z,72.87
2018-11-21T10:35:36.440Z,72.70
2018-11-21T10:38:03.672Z,72.67
2018-11-21T10:40:30.923Z,72.45
2018-11-21T10:42:57.964Z,72.63
2018-11-21T10:45:25.087Z,72.09
2018-11-21T10:47:52.310Z,71.86
2018-11-21T10:50:19.405Z,71.39
2018-11-21T10:52:46.540Z,71.96
2018-11-21T10:55:13.694Z,72.40
2018-11-21T10:57:40.840Z,72.20
2018-11-21T11:00:14.005Z,72.02
2018-11-21T11:02:59.649Z,71.85
2018-11-21T11:05:44.931Z,71.61
2018-11-21T11:08:30.342Z,71.52
2018-11-21T11:11:16.324Z,72.35
2018-11-21T11:14:15.207Z,71.75
2018-11-21T11:17:02.570Z,71.94
2018-11-21T11:20:01.229Z,71.88
2018-11-21T11:22:44.588Z,71.89
2018-11-21T11:25:37.587Z,72.41
2018-11-21T11:28:30.175Z,71.55
2018-11-21T11:31:05.193Z,72.73
2018-11-21T11:33:50.351Z,72.50
2018-11-21T11:36:35.649Z,71.92
2018-11-21T11:39:28.105Z,72.07
2018-11-21T11:42:13.793Z,72.82
2018-11-21T11:45:15.849Z,72.54
2018-11-21T11:48:06.275Z,73.09
2018-11-21T11:51:04.793Z,73.09
2018-11-21T11:53:58.874Z,72.63
2018-11-21T11:56:54.628Z,72.33
2018-11-21T11:59:41.238Z,72.78
2018-11-21T12:02:45.496Z,72.80
2018-11-21T12:05:38.237Z,73.13
